sensor_id;sensor_type;location;lat;lon;timestamp;pressure;altitude;pressure_sealevel;temperature;humidity
11985;BME280;6052;53.246;10.368;2023-12-20T00:02:25;100473.78;;;8.55;100.00
11985;BME280;6052;53.246;10.368;2023-12-20T00:04:54;100473.66;;;8.50;100.00
11985;BME280;6052;53.246;10.368;2023-12-20T00:07:27;100487.13;;;8.32;100.00
11985;BME280;6052;53.246;10.368;2023-12-20T00:09:57;100485.84;;;8.34;100.00
11985;BME280;6052;53.246;10.368;2023-12-20T00:12:26;100486.34;;;8.43;100.00
11985;BME280;6052;53.246;10.368;2023-12-20T00:14:56;100494.56;;;8.41;100.00
11985;BME280;6052;53.246;10.368;2023-12-20T00:17:26;100487.88;;;8.50;100.00
11985;BME280;6052;53.246;10.368;2023-12-20T00:19:55;100492.59;;;8.48;100.00
11985;BME280;6052;53.246;10.368;2023-12-20T00:22:27;100494.13;;;8.44;100.00
11985;BME280;6052;53.246;10.368;2023-12-20T00:24:57;100487.97;;;8.44;100.00
11985;BME280;6052;53.246;10.368;2023-12-20T00:27:27;100491.94;;;8.53;100.00
11985;BME280;6052;53.246;10.368;2023-12-20T00:29:57;100491.41;;;8.33;100.00
11985;BME280;6052;53.246;10.368;2023-12-20T00:32:26;100495.44;;;8.24;100.00
11985;BME280;6052;53.246;10.368;2023-12-20T00:34:56;100486.66;;;8.35;100.00
11985;BME280;6052;53.246;10.368;2023-12-20T00:37:28;100484.53;;;8.25;100.00
11985;BME280;6052;53.246;10.368;2023-12-20T00:39:58;100474.84;;;8.24;100.00
11985;BME280;6052;53.246;10.368;2023-12-20T00:42:28;100476.25;;;8.27;100.00
11985;BME280;6052;53.246;10.368;2023-12-20T00:44:58;100476.25;;;8.27;100.00
11985;BME280;6052;53.246;10.368;2023-12-20T00:47:28;100480.25;;;8.36;100.00
11985;BME280;6052;53.246;10.368;2023-12-20T00:49:58;100483.66;;;8.43;100.00
11985;BME280;6052;53.246;10.368;2023-12-20T00:52:30;100477.69;;;8.11;100.00
11985;BME280;6052;53.246;10.368;2023-12-20T00:55:00;100481.28;;;8.35;100.00
11985;BME280;6052;53.246;10.368;2023-12-20T00:57:31;100472.66;;;8.21;100.00
11985;BME280;6052;53.246;10.368;2023-12-20T01:00:00;100472.56;;;8.28;100.00
11985;BME280;6052;53.246;10.368;2023-12-20T01:02:30;100468.22;;;8.27;100.00
11985;BME280;6052;53.246;10.368;2023-12-20T01:05:01;100477.44;;;8.31;100.00
11985;BME280;6052;53.246;10.368;2023-12-20T01:07:34;100470.81;;;8.04;100.00
11985;BME280;6052;53.246;10.368;2023-12-20T01:10:04;100471.16;;;8.07;100.00
11985;BME280;6052;53.246;10.368;2023-12-20T01:12:36;100468.34;;;8.02;100.00
11985;BME280;6052;53.246;10.368;2023-12-20T01:15:06;100463.72;;;8.09;100.00
11985;BME280;6052;53.246;10.368;2023-12-20T01:17:36;100471.09;;;8.14;100.00
11985;BME280;6052;53.246;10.368;2023-12-20T01:20:07;100460.56;;;8.01;100.00
11985;BME280;6052;53.246;10.368;2023-12-20T01:22:40;100458.56;;;7.96;100.00
11985;BME280;6052;53.246;10.368;2023-12-20T01:25:09;100459.78;;;8.12;100.00
11985;BME280;6052;53.246;10.368;2023-12-20T01:27:39;100459.28;;;8.03;100.00
11985;BME280;6052;53.246;10.368;2023-12-20T01:30:10;100459.38;;;7.97;100.00
11985;BME280;6052;53.246;10.368;2023-12-20T01:32:40;100451.88;;;8.05;100.00
11985;BME280;6052;53.246;10.368;2023-12-20T01:35:10;100445.25;;;8.08;100.00
11985;BME280;6052;53.246;10.368;2023-12-20T01:37:43;100443.06;;;7.87;100.00
11985;BME280;6052;53.246;10.368;2023-12-20T01:40:13;100450.84;;;8.06;100.00
11985;BME280;6052;53.246;10.368;2023-12-20T01:42:43;100453.84;;;8.10;100.00
11985;BME280;6052;53.246;10.368;2023-12-20T01:45:13;100450.84;;;8.06;100.00
11985;BME280;6052;53.246;10.368;2023-12-20T01:47:43;100452.63;;;7.94;100.00
11985;BME280;6052;53.246;10.368;2023-12-20T01:50:13;100445.44;;;7.95;100.00
11985;BME280;6052;53.246;10.368;2023-12-20T01:52:46;100441.38;;;7.74;100.00
11985;BME280;6052;53.246;10.368;2023-12-20T01:55:19;100448.47;;;7.80;100.00
11985;BME280;6052;53.246;10.368;2023-12-20T01:57:50;100441.03;;;7.71;100.00
11985;BME280;6052;53.246;10.368;2023-12-20T02:00:21;100437.78;;;7.98;100.00
11985;BME280;6052;53.246;10.368;2023-12-20T02:02:53;100436.06;;;8.04;100.00
11985;BME280;6052;53.246;10.368;2023-12-20T02:05:24;100428.84;;;7.75;100.00
11985;BME280;6052;53.246;10.368;2023-12-20T02:07:57;100425.13;;;7.76;100.00
11985;BME280;6052;53.246;10.368;2023-12-20T02:10:27;100416.41;;;7.69;100.00
11985;BME280;6052;53.246;10.368;2023-12-20T02:12:57;100418.66;;;7.83;100.00
11985;BME280;6052;53.246;10.368;2023-12-20T02:15:27;100418.53;;;7.78;100.00
11985;BME280;6052;53.246;10.368;2023-12-20T02:17:57;100409.47;;;7.79;100.00
11985;BME280;6052;53.246;10.368;2023-12-20T02:20:27;100408.38;;;7.69;100.00
11985;BME280;6052;53.246;10.368;2023-12-20T02:22:59;100403.03;;;7.69;100.00
11985;BME280;6052;53.246;10.368;2023-12-20T02:25:26;100402.34;;;7.73;100.00
11985;BME280;6052;53.246;10.368;2023-12-20T02:27:55;100404.97;;;7.62;100.00
11985;BME280;6052;53.246;10.368;2023-12-20T02:30:25;100407.06;;;7.60;100.00
11985;BME280;6052;53.246;10.368;2023-12-20T02:32:55;100406.09;;;7.54;100.00
11985;BME280;6052;53.246;10.368;2023-12-20T02:35:26;100404.81;;;7.57;100.00
11985;BME280;6052;53.246;10.368;2023-12-20T02:37:58;100411.16;;;7.44;100.00
11985;BME280;6052;53.246;10.368;2023-12-20T02:40:28;100400.81;;;7.48;100.00
11985;BME280;6052;53.246;10.368;2023-12-20T02:42:58;100408.53;;;7.38;100.00
11985;BME280;6052;53.246;10.368;2023-12-20T02:45:27;100391.03;;;7.42;100.00
11985;BME280;6052;53.246;10.368;2023-12-20T02:47:57;100395.47;;;7.66;100.00
11985;BME280;6052;53.246;10.368;2023-12-20T02:50:27;100397.66;;;7.39;100.00
11985;BME280;6052;53.246;10.368;2023-12-20T02:52:59;100398.28;;;7.53;100.00
11985;BME280;6052;53.246;10.368;2023-12-20T02:55:29;100388.38;;;7.42;100.00
11985;BME280;6052;53.246;10.368;2023-12-20T02:57:59;100381.06;;;7.37;100.00
11985;BME280;6052;53.246;10.368;2023-12-20T03:00:29;100384.31;;;7.39;100.00
11985;BME280;6052;53.246;10.368;2023-12-20T03:02:59;100388.09;;;7.50;100.00
11985;BME280;6052;53.246;10.368;2023-12-20T03:05:29;100391.03;;;7.42;100.00
11985;BME280;6052;53.246;10.368;2023-12-20T03:08:01;100395.03;;;7.51;100.00
11985;BME280;6052;53.246;10.368;2023-12-20T03:10:31;100379.75;;;7.58;100.00
11985;BME280;6052;53.246;10.368;2023-12-20T03:13:01;100384.88;;;7.41;100.00
11985;BME280;6052;53.246;10.368;2023-12-20T03:15:31;100383.72;;;7.37;100.00
11985;BME280;6052;53.246;10.368;2023-12-20T03:18:00;100368.84;;;7.41;100.00
11985;BME280;6052;53.246;10.368;2023-12-20T03:20:30;100366.94;;;7.48;100.00
11985;BME280;6052;53.246;10.368;2023-12-20T03:23:03;100363.72;;;7.58;100.00
11985;BME280;6052;53.246;10.368;2023-12-20T03:25:33;100347.84;;;7.63;100.00
11985;BME280;6052;53.246;10.368;2023-12-20T03:28:04;100355.66;;;7.46;100.00
11985;BME280;6052;53.246;10.368;2023-12-20T03:30:34;100348.38;;;7.53;100.00
11985;BME280;6052;53.246;10.368;2023-12-20T03:33:04;100348.13;;;7.43;100.00
11985;BME280;6052;53.246;10.368;2023-12-20T03:35:34;100335.47;;;7.50;100.00
11985;BME280;6052;53.246;10.368;2023-12-20T03:38:07;100340.63;;;7.34;100.00
11985;BME280;6052;53.246;10.368;2023-12-20T03:40:36;100335.56;;;7.44;100.00
11985;BME280;6052;53.246;10.368;2023-12-20T03:43:06;100342.00;;;7.25;100.00
11985;BME280;6052;53.246;10.368;2023-12-20T03:45:36;100333.69;;;7.15;100.00
11985;BME280;6052;53.246;10.368;2023-12-20T03:48:07;100330.84;;;7.28;100.00
11985;BME280;6052;53.246;10.368;2023-12-20T03:50:37;100339.00;;;7.33;100.00
11985;BME280;6052;53.246;10.368;2023-12-20T03:53:09;100328.22;;;7.39;100.00
11985;BME280;6052;53.246;10.368;2023-12-20T03:55:39;100341.00;;;7.37;100.00
11985;BME280;6052;53.246;10.368;2023-12-20T03:58:09;100331.03;;;7.44;100.00
11985;BME280;6052;53.246;10.368;2023-12-20T04:00:39;100322.91;;;7.39;100.00
11985;BME280;6052;53.246;10.368;2023-12-20T04:03:09;100334.00;;;7.36;100.00
11985;BME280;6052;53.246;10.368;2023-12-20T04:05:40;100321.28;;;7.38;100.00
11985;BME280;6052;53.246;10.368;2023-12-20T04:08:12;100316.31;;;7.24;100.00
11985;BME280;6052;53.246;10.368;2023-12-20T04:10:42;100314.88;;;7.39;100.00
11985;BME280;6052;53.246;10.368;2023-12-20T04:13:11;100311.72;;;7.13;100.00
11985;BME280;6052;53.246;10.368;2023-12-20T04:15:41;100312.50;;;7.20;100.00
11985;BME280;6052;53.246;10.368;2023-12-20T04:18:11;100304.41;;;7.08;100.00
11985;BME280;6052;53.246;10.368;2023-12-20T04:20:41;100297.59;;;7.12;100.00
11985;BME280;6052;53.246;10.368;2023-12-20T04:23:14;100299.00;;;7.15;100.00
11985;BME280;6052;53.246;10.368;2023-12-20T04:25:44;100292.84;;;7.14;100.00
11985;BME280;6052;53.246;10.368;2023-12-20T04:28:13;100296.47;;;7.20;100.00
11985;BME280;6052;53.246;10.368;2023-12-20T04:30:43;100287.91;;;7.29;100.00
11985;BME280;6052;53.246;10.368;2023-12-20T04:33:14;100294.75;;;7.25;100.00
11985;BME280;6052;53.246;10.368;2023-12-20T04:35:44;100287.91;;;7.29;100.00
11985;BME280;6052;53.246;10.368;2023-12-20T04:38:16;100295.56;;;7.26;100.00
11985;BME280;6052;53.246;10.368;2023-12-20T04:40:46;100287.00;;;7.35;100.00
11985;BME280;6052;53.246;10.368;2023-12-20T04:43:16;100273.31;;;7.32;100.00
11985;BME280;6052;53.246;10.368;2023-12-20T04:45:46;100282.59;;;7.11;100.00
11985;BME280;6052;53.246;10.368;2023-12-20T04:48:15;100276.75;;;7.21;100.00
11985;BME280;6052;53.246;10.368;2023-12-20T04:50:45;100267.13;;;7.20;100.00
11985;BME280;6052;53.246;10.368;2023-12-20T04:53:18;100266.16;;;7.14;100.00
11985;BME280;6052;53.246;10.368;2023-12-20T04:55:47;100269.53;;;7.21;100.00
11985;BME280;6052;53.246;10.368;2023-12-20T04:58:17;100264.47;;;7.31;100.00
11985;BME280;6052;53.246;10.368;2023-12-20T05:00:47;100267.38;;;7.30;100.00
11985;BME280;6052;53.246;10.368;2023-12-20T05:03:17;100263.94;;;7.41;100.00
11985;BME280;6052;53.246;10.368;2023-12-20T05:05:46;100266.44;;;7.24;100.00
11985;BME280;6052;53.246;10.368;2023-12-20T05:08:19;100270.00;;;7.18;100.00
11985;BME280;6052;53.246;10.368;2023-12-20T05:10:49;100259.56;;;7.17;100.00
11985;BME280;6052;53.246;10.368;2023-12-20T05:13:18;100257.50;;;7.30;100.00
11985;BME280;6052;53.246;10.368;2023-12-20T05:15:52;100261.22;;;7.29;100.00
11985;BME280;6052;53.246;10.368;2023-12-20T05:18:21;100253.34;;;7.34;100.00
11985;BME280;6052;53.246;10.368;2023-12-20T05:20:51;100263.53;;;7.26;100.00
11985;BME280;6052;53.246;10.368;2023-12-20T05:23:27;100263.97;;;7.23;100.00
11985;BME280;6052;53.246;10.368;2023-12-20T05:25:57;100267.84;;;7.27;100.00
11985;BME280;6052;53.246;10.368;2023-12-20T05:28:27;100261.53;;;7.21;100.00
11985;BME280;6052;53.246;10.368;2023-12-20T05:30:56;100253.78;;;7.20;100.00
11985;BME280;6052;53.246;10.368;2023-12-20T05:33:26;100253.84;;;7.43;100.00
11985;BME280;6052;53.246;10.368;2023-12-20T05:35:56;100259.25;;;7.36;100.00
11985;BME280;6052;53.246;10.368;2023-12-20T05:38:28;100253.25;;;7.41;100.00
11985;BME280;6052;53.246;10.368;2023-12-20T05:40:58;100258.13;;;7.44;100.00
11985;BME280;6052;53.246;10.368;2023-12-20T05:43:28;100256.78;;;7.23;100.00
11985;BME280;6052;53.246;10.368;2023-12-20T05:45:57;100269.81;;;7.31;100.00
11985;BME280;6052;53.246;10.368;2023-12-20T05:48:27;100258.91;;;7.33;100.00
11985;BME280;6052;53.246;10.368;2023-12-20T05:50:57;100258.63;;;7.23;100.00
11985;BME280;6052;53.246;10.368;2023-12-20T05:53:30;100257.88;;;7.34;100.00
11985;BME280;6052;53.246;10.368;2023-12-20T05:55:59;100251.81;;;7.27;100.00
11985;BME280;6052;53.246;10.368;2023-12-20T05:58:29;100253.53;;;7.21;100.00
11985;BME280;6052;53.246;10.368;2023-12-20T06:00:59;100247.88;;;7.29;100.00
11985;BME280;6052;53.246;10.368;2023-12-20T06:03:28;100250.47;;;7.36;100.00
11985;BME280;6052;53.246;10.368;2023-12-20T06:05:58;100245.25;;;7.41;100.00
11985;BME280;6052;53.246;10.368;2023-12-20T06:08:44;100243.50;;;7.35;100.00
11985;BME280;6052;53.246;10.368;2023-12-20T06:11:13;100249.31;;;7.43;100.00
11985;BME280;6052;53.246;10.368;2023-12-20T06:13:43;100246.91;;;7.24;100.00
11985;BME280;6052;53.246;10.368;2023-12-20T06:16:13;100241.97;;;7.27;100.00
11985;BME280;6052;53.246;10.368;2023-12-20T06:18:42;100249.72;;;7.29;100.00
11985;BME280;6052;53.246;10.368;2023-12-20T06:21:12;100239.69;;;7.42;100.00
11985;BME280;6052;53.246;10.368;2023-12-20T06:23:44;100236.16;;;7.30;100.00
11985;BME280;6052;53.246;10.368;2023-12-20T06:26:14;100226.66;;;7.34;100.00
11985;BME280;6052;53.246;10.368;2023-12-20T06:28:44;100221.22;;;7.41;100.00
11985;BME280;6052;53.246;10.368;2023-12-20T06:31:13;100213.31;;;7.34;100.00
11985;BME280;6052;53.246;10.368;2023-12-20T06:33:43;100219.34;;;7.41;100.00
11985;BME280;6052;53.246;10.368;2023-12-20T06:36:13;100218.28;;;7.31;100.00
11985;BME280;6052;53.246;10.368;2023-12-20T06:38:46;100210.38;;;7.24;100.00
11985;BME280;6052;53.246;10.368;2023-12-20T06:41:15;100212.97;;;7.31;100.00
11985;BME280;6052;53.246;10.368;2023-12-20T06:43:45;100233.63;;;7.35;100.00
11985;BME280;6052;53.246;10.368;2023-12-20T06:46:16;100208.25;;;7.56;100.00
11985;BME280;6052;53.246;10.368;2023-12-20T06:48:46;100209.59;;;7.35;100.00
11985;BME280;6052;53.246;10.368;2023-12-20T06:51:16;100204.72;;;7.32;100.00
11985;BME280;6052;53.246;10.368;2023-12-20T06:53:49;100212.72;;;7.32;100.00
11985;BME280;6052;53.246;10.368;2023-12-20T06:56:19;100212.63;;;7.39;100.00
11985;BME280;6052;53.246;10.368;2023-12-20T06:58:49;100200.25;;;7.56;100.00
11985;BME280;6052;53.246;10.368;2023-12-20T07:01:18;100187.69;;;7.45;100.00
11985;BME280;6052;53.246;10.368;2023-12-20T07:03:49;100185.16;;;7.50;100.00
11985;BME280;6052;53.246;10.368;2023-12-20T07:06:19;100188.00;;;7.37;100.00
11985;BME280;6052;53.246;10.368;2023-12-20T07:08:54;100195.72;;;7.56;100.00
11985;BME280;6052;53.246;10.368;2023-12-20T07:11:24;100189.31;;;7.46;100.00
11985;BME280;6052;53.246;10.368;2023-12-20T07:13:54;100189.69;;;7.61;100.00
11985;BME280;6052;53.246;10.368;2023-12-20T07:16:24;100191.28;;;7.50;100.00
11985;BME280;6052;53.246;10.368;2023-12-20T07:18:53;100165.63;;;7.49;100.00
11985;BME280;6052;53.246;10.368;2023-12-20T07:21:23;100177.69;;;7.40;100.00
11985;BME280;6052;53.246;10.368;2023-12-20T07:23:56;100179.69;;;7.45;100.00
11985;BME280;6052;53.246;10.368;2023-12-20T07:26:25;100175.75;;;7.47;100.00
11985;BME280;6052;53.246;10.368;2023-12-20T07:28:55;100181.63;;;7.38;100.00
11985;BME280;6052;53.246;10.368;2023-12-20T07:31:25;100182.59;;;7.55;100.00
11985;BME280;6052;53.246;10.368;2023-12-20T07:33:55;100189.22;;;7.52;100.00
11985;BME280;6052;53.246;10.368;2023-12-20T07:36:25;100186.03;;;7.44;100.00
11985;BME280;6052;53.246;10.368;2023-12-20T07:38:57;100179.66;;;7.33;100.00
11985;BME280;6052;53.246;10.368;2023-12-20T07:41:27;100185.16;;;7.50;100.00
11985;BME280;6052;53.246;10.368;2023-12-20T07:43:56;100181.22;;;7.52;100.00
11985;BME280;6052;53.246;10.368;2023-12-20T07:46:26;100177.69;;;7.40;100.00
11985;BME280;6052;53.246;10.368;2023-12-20T07:48:56;100174.47;;;7.50;100.00
11985;BME280;6052;53.246;10.368;2023-12-20T07:51:27;100175.03;;;7.52;100.00
11985;BME280;6052;53.246;10.368;2023-12-20T07:53:59;100163.56;;;7.51;100.00
11985;BME280;6052;53.246;10.368;2023-12-20T07:56:30;100173.75;;;7.43;100.00
11985;BME280;6052;53.246;10.368;2023-12-20T07:58:59;100174.13;;;7.58;100.00
11985;BME280;6052;53.246;10.368;2023-12-20T08:01:31;100167.84;;;7.41;100.00
11985;BME280;6052;53.246;10.368;2023-12-20T08:04:00;100168.88;;;7.40;100.00
11985;BME280;6052;53.246;10.368;2023-12-20T08:06:30;100175.53;;;7.49;100.00
11985;BME280;6052;53.246;10.368;2023-12-20T08:09:02;100163.91;;;7.55;100.00
11985;BME280;6052;53.246;10.368;2023-12-20T08:11:32;100155.66;;;7.45;100.00
11985;BME280;6052;53.246;10.368;2023-12-20T08:14:02;100150.91;;;7.58;100.00
11985;BME280;6052;53.246;10.368;2023-12-20T08:16:32;100146.50;;;7.52;100.00
11985;BME280;6052;53.246;10.368;2023-12-20T08:19:02;100148.00;;;7.60;100.00
11985;BME280;6052;53.246;10.368;2023-12-20T08:21:32;100136.03;;;7.39;100.00
11985;BME280;6052;53.246;10.368;2023-12-20T08:24:07;100147.41;;;7.46;100.00
11985;BME280;6052;53.246;10.368;2023-12-20T08:26:37;100137.34;;;7.60;100.00
11985;BME280;6052;53.246;10.368;2023-12-20T08:29:07;100145.78;;;7.57;100.00
11985;BME280;6052;53.246;10.368;2023-12-20T08:31:37;100149.72;;;7.43;100.00
11985;BME280;6052;53.246;10.368;2023-12-20T08:34:07;100145.88;;;7.39;100.00
11985;BME280;6052;53.246;10.368;2023-12-20T08:36:40;100130.69;;;7.51;100.00
11985;BME280;6052;53.246;10.368;2023-12-20T08:39:13;100127.69;;;7.47;100.00
11985;BME280;6052;53.246;10.368;2023-12-20T08:41:43;100123.63;;;7.56;100.00
11985;BME280;6052;53.246;10.368;2023-12-20T08:44:12;100113.63;;;7.52;100.00
11985;BME280;6052;53.246;10.368;2023-12-20T08:46:43;100100.03;;;7.42;100.00
11985;BME280;6052;53.246;10.368;2023-12-20T08:49:13;100103.53;;;7.54;100.00
11985;BME280;6052;53.246;10.368;2023-12-20T08:51:43;100100.97;;;7.47;100.00
11985;BME280;6052;53.246;10.368;2023-12-20T08:54:16;100094.25;;;7.56;100.00
11985;BME280;6052;53.246;10.368;2023-12-20T08:56:46;100094.00;;;7.58;100.00
11985;BME280;6052;53.246;10.368;2023-12-20T08:59:17;100094.16;;;7.51;100.00
11985;BME280;6052;53.246;10.368;2023-12-20T09:01:47;100081.91;;;7.44;100.00
11985;BME280;6052;53.246;10.368;2023-12-20T09:04:21;100093.22;;;7.69;100.00
11985;BME280;6052;53.246;10.368;2023-12-20T09:06:51;100084.25;;;7.52;100.00
11985;BME280;6052;53.246;10.368;2023-12-20T09:09:25;100089.03;;;7.50;100.00
11985;BME280;6052;53.246;10.368;2023-12-20T09:11:55;100089.72;;;7.57;100.00
11985;BME280;6052;53.246;10.368;2023-12-20T09:14:25;100067.41;;;7.63;100.00
11985;BME280;6052;53.246;10.368;2023-12-20T09:16:55;100077.19;;;7.57;100.00
11985;BME280;6052;53.246;10.368;2023-12-20T09:19:25;100076.03;;;7.53;100.00
11985;BME280;6052;53.246;10.368;2023-12-20T09:21:55;100085.88;;;7.53;100.00
11985;BME280;6052;53.246;10.368;2023-12-20T09:24:27;100076.34;;;7.57;100.00
11985;BME280;6052;53.246;10.368;2023-12-20T09:26:57;100063.72;;;7.64;100.00
11985;BME280;6052;53.246;10.368;2023-12-20T09:29:27;100070.13;;;7.51;100.00
11985;BME280;6052;53.246;10.368;2023-12-20T09:31:57;100076.13;;;7.58;100.00
11985;BME280;6052;53.246;10.368;2023-12-20T09:34:27;100060.09;;;7.70;100.00
11985;BME280;6052;53.246;10.368;2023-12-20T09:36:58;100066.72;;;7.67;100.00
11985;BME280;6052;53.246;10.368;2023-12-20T09:39:30;100065.13;;;7.66;100.00
11985;BME280;6052;53.246;10.368;2023-12-20T09:42:03;100055.94;;;7.62;100.00
11985;BME280;6052;53.246;10.368;2023-12-20T09:44:34;100037.47;;;7.61;100.00
11985;BME280;6052;53.246;10.368;2023-12-20T09:47:08;100043.88;;;7.60;100.00
11985;BME280;6052;53.246;10.368;2023-12-20T09:49:38;100025.59;;;7.80;100.00
11985;BME280;6052;53.246;10.368;2023-12-20T09:52:09;100046.38;;;7.78;100.00
11985;BME280;6052;53.246;10.368;2023-12-20T09:54:44;100054.06;;;7.63;100.00
11985;BME280;6052;53.246;10.368;2023-12-20T09:57:15;100051.28;;;7.69;100.00
11985;BME280;6052;53.246;10.368;2023-12-20T09:59:45;100051.75;;;7.66;100.00
11985;BME280;6052;53.246;10.368;2023-12-20T10:02:18;100089.03;;;7.61;100.00
11985;BME280;6052;53.246;10.368;2023-12-20T10:04:54;100103.19;;;7.62;100.00
11985;BME280;6052;53.246;10.368;2023-12-20T10:07:24;100081.34;;;7.42;100.00
11985;BME280;6052;53.246;10.368;2023-12-20T10:09:57;100042.69;;;7.33;100.00
11985;BME280;6052;53.246;10.368;2023-12-20T10:12:27;100073.19;;;7.14;100.00
11985;BME280;6052;53.246;10.368;2023-12-20T10:14:57;100078.66;;;7.30;100.00
11985;BME280;6052;53.246;10.368;2023-12-20T10:17:27;100064.97;;;7.27;100.00
11985;BME280;6052;53.246;10.368;2023-12-20T10:19:58;100070.78;;;7.12;100.00
11985;BME280;6052;53.246;10.368;2023-12-20T10:22:30;100083.63;;;7.15;100.00
11985;BME280;6052;53.246;10.368;2023-12-20T10:25:03;100074.97;;;7.20;100.00
11985;BME280;6052;53.246;10.368;2023-12-20T10:27:33;100066.03;;;7.26;100.00
11985;BME280;6052;53.246;10.368;2023-12-20T10:30:05;100053.16;;;7.34;100.00
11985;BME280;6052;53.246;10.368;2023-12-20T10:32:35;100063.47;;;7.19;100.00
11985;BME280;6052;53.246;10.368;2023-12-20T10:35:06;100063.50;;;7.42;100.00
11985;BME280;6052;53.246;10.368;2023-12-20T10:37:36;100073.69;;;7.34;100.00
11985;BME280;6052;53.246;10.368;2023-12-20T10:40:10;100064.06;;;7.44;100.00
11985;BME280;6052;53.246;10.368;2023-12-20T10:42:42;100071.13;;;7.39;100.00
11985;BME280;6052;53.246;10.368;2023-12-20T10:45:13;100070.06;;;7.17;100.00
11985;BME280;6052;53.246;10.368;2023-12-20T10:47:46;100076.34;;;7.22;100.00
11985;BME280;6052;53.246;10.368;2023-12-20T10:50:16;100071.16;;;7.27;100.00
11985;BME280;6052;53.246;10.368;2023-12-20T10:52:47;100067.84;;;7.14;100.00
11985;BME280;6052;53.246;10.368;2023-12-20T10:55:24;100079.44;;;7.08;100.00
11985;BME280;6052;53.246;10.368;2023-12-20T10:58:03;100061.38;;;7.21;100.00
11985;BME280;6052;53.246;10.368;2023-12-20T11:00:39;100068.13;;;7.35;100.00
11985;BME280;6052;53.246;10.368;2023-12-20T11:03:10;100051.75;;;7.32;100.00
11985;BME280;6052;53.246;10.368;2023-12-20T11:05:45;100051.50;;;7.22;100.00
11985;BME280;6052;53.246;10.368;2023-12-20T11:08:22;100055.47;;;7.19;100.00
11985;BME280;6052;53.246;10.368;2023-12-20T11:10:59;100059.06;;;7.25;100.00
11985;BME280;6052;53.246;10.368;2023-12-20T11:13:34;100055.13;;;7.16;100.00
11985;BME280;6052;53.246;10.368;2023-12-20T11:16:05;100052.19;;;7.06;100.00
11985;BME280;6052;53.246;10.368;2023-12-20T11:18:35;100044.06;;;7.24;100.00
11985;BME280;6052;53.246;10.368;2023-12-20T11:21:05;100053.13;;;7.23;100.00
11985;BME280;6052;53.246;10.368;2023-12-20T11:23:35;100043.38;;;7.17;100.00
11985;BME280;6052;53.246;10.368;2023-12-20T11:26:07;100042.56;;;7.28;100.00
11985;BME280;6052;53.246;10.368;2023-12-20T11:28:37;100057.06;;;7.20;100.00
11985;BME280;6052;53.246;10.368;2023-12-20T11:31:07;100045.50;;;7.15;100.00
11985;BME280;6052;53.246;10.368;2023-12-20T11:33:36;100042.44;;;7.11;100.00
11985;BME280;6052;53.246;10.368;2023-12-20T11:36:13;100034.09;;;7.19;100.00
11985;BME280;6052;53.246;10.368;2023-12-20T11:38:53;100031.31;;;7.14;100.00
11985;BME280;6052;53.246;10.368;2023-12-20T11:41:26;100060.75;;;6.96;100.00
11985;BME280;6052;53.246;10.368;2023-12-20T11:43:56;100058.00;;;7.14;100.00
11985;BME280;6052;53.246;10.368;2023-12-20T11:46:27;100055.25;;;7.32;100.00
11985;BME280;6052;53.246;10.368;2023-12-20T11:48:57;100054.63;;;7.19;100.00
11985;BME280;6052;53.246;10.368;2023-12-20T11:51:27;100050.94;;;7.20;100.00
11985;BME280;6052;53.246;10.368;2023-12-20T11:53:56;100052.09;;;7.12;100.00
11985;BME280;6052;53.246;10.368;2023-12-20T11:56:29;100047.09;;;7.16;100.00
11985;BME280;6052;53.246;10.368;2023-12-20T11:58:58;100045.13;;;7.11;100.00
11985;BME280;6052;53.246;10.368;2023-12-20T12:01:48;100061.63;;;7.20;100.00
11985;BME280;6052;53.246;10.368;2023-12-20T12:04:18;100033.78;;;7.27;100.00
11985;BME280;6052;53.246;10.368;2023-12-20T12:06:48;100049.19;;;7.25;100.00
11985;BME280;6052;53.246;10.368;2023-12-20T12:09:18;100042.81;;;7.38;100.00
11985;BME280;6052;53.246;10.368;2023-12-20T12:11:50;100049.31;;;7.30;100.00
11985;BME280;6052;53.246;10.368;2023-12-20T12:14:20;100040.13;;;7.26;100.00
11985;BME280;6052;53.246;10.368;2023-12-20T12:16:50;100042.59;;;7.39;100.00
11985;BME280;6052;53.246;10.368;2023-12-20T12:19:20;100050.13;;;7.42;100.00
11985;BME280;6052;53.246;10.368;2023-12-20T12:21:50;100035.41;;;7.51;100.00
11985;BME280;6052;53.246;10.368;2023-12-20T12:24:20;100049.78;;;7.50;100.00
11985;BME280;6052;53.246;10.368;2023-12-20T12:26:57;100026.69;;;7.44;100.00
11985;BME280;6052;53.246;10.368;2023-12-20T12:29:27;100040.97;;;7.50;100.00
11985;BME280;6052;53.246;10.368;2023-12-20T12:31:57;100031.69;;;7.41;100.00
11985;BME280;6052;53.246;10.368;2023-12-20T12:34:27;100019.38;;;7.51;100.00
11985;BME280;6052;53.246;10.368;2023-12-20T12:36:57;100034.13;;;7.42;100.00
11985;BME280;6052;53.246;10.368;2023-12-20T12:39:27;100025.28;;;7.53;100.00
11985;BME280;6052;53.246;10.368;2023-12-20T12:41:59;100021.34;;;7.44;100.00
11985;BME280;6052;53.246;10.368;2023-12-20T12:44:29;100024.72;;;7.51;100.00
11985;BME280;6052;53.246;10.368;2023-12-20T12:46:58;100029.22;;;7.62;100.00
11985;BME280;6052;53.246;10.368;2023-12-20T12:49:29;100018.09;;;7.54;100.00
11985;BME280;6052;53.246;10.368;2023-12-20T12:51:59;100020.28;;;7.45;100.00
11985;BME280;6052;53.246;10.368;2023-12-20T12:54:29;100017.28;;;7.53;100.00
11985;BME280;6052;53.246;10.368;2023-12-20T12:57:02;100017.84;;;7.55;100.00
11985;BME280;6052;53.246;10.368;2023-12-20T12:59:32;100023.06;;;7.39;100.00
11985;BME280;6052;53.246;10.368;2023-12-20T13:02:06;100034.22;;;7.47;100.00
11985;BME280;6052;53.246;10.368;2023-12-20T13:04:36;100022.63;;;7.42;100.00
11985;BME280;6052;53.246;10.368;2023-12-20T13:07:06;100029.56;;;7.43;100.00
11985;BME280;6052;53.246;10.368;2023-12-20T13:09:37;100030.28;;;7.27;100.00